Bowmanville, Canada
Current Conditions -  °F | °C
As of 12:00 PM on Thursday 27 Nov 2014 (Local Time) from CYOO Reporting Station
Overcast Overcast  
Wind Chill: -2°   Ceiling: 2100
Heat Index: -2°   Visibility: 9mi
Dew Point: -6°   Wind: 3mph
Humidity: 74%   Direction: 260°W
Pressure: 30.06"   Gusts: NA
Location:  43.91°N, 78.69°W
Report Text: CYOO 271700Z AUTO 26003KT 220V280 9SM BKN021 OVC025 M02/M06 A3006 RMK SLP185
Loading
Personal Weather Stations






























Interactive Weather Map New forecast layout! Learn more

10-Day Weather Forecast

Advertisements
Track Severe Weather on mobile